createdAt,value
2023-01-29T00:02:24.034Z,20.65
2023-01-29T00:07:25.928Z,18.95
2023-01-29T00:12:27.750Z,21.30
2023-01-29T00:17:29.889Z,20.70
2023-01-29T00:22:31.724Z,21.60
2023-01-29T00:27:33.869Z,27.30
2023-01-29T00:32:35.814Z,20.77
2023-01-29T00:37:37.949Z,20.23
2023-01-29T00:42:39.767Z,20.70
2023-01-29T00:47:41.605Z,20.63
2023-01-29T00:52:43.436Z,20.98
2023-01-29T00:57:45.274Z,19.60
2023-01-29T01:02:47.170Z,20.08
2023-01-29T01:07:51.180Z,25.60
2023-01-29T01:13:00.734Z,22.95
2023-01-29T01:18:02.810Z,25.08
2023-01-29T01:23:05.093Z,26.00
2023-01-29T01:28:07.182Z,21.77
2023-01-29T01:33:09.074Z,24.33
2023-01-29T01:38:11.212Z,27.00
2023-01-29T01:43:13.318Z,23.83
2023-01-29T01:48:26.673Z,26.35
2023-01-29T01:53:39.905Z,25.98
2023-01-29T01:59:08.218Z,26.27
2023-01-29T02:04:15.275Z,24.45
2023-01-29T02:09:21.871Z,25.85
2023-01-29T02:14:23.883Z,29.10
2023-01-29T02:19:44.488Z,26.52
2023-01-29T02:24:52.451Z,25.92
2023-01-29T02:29:57.407Z,26.98
2023-01-29T02:35:18.163Z,30.27
2023-01-29T02:40:30.024Z,25.77
2023-01-29T02:45:32.007Z,24.48
2023-01-29T02:50:43.001Z,27.02
2023-01-29T02:55:48.599Z,27.42
2023-01-29T03:00:51.997Z,28.40
2023-01-29T03:06:08.345Z,27.27
2023-01-29T03:11:12.334Z,27.98
2023-01-29T03:16:21.750Z,29.52
2023-01-29T03:21:33.655Z,27.15
2023-01-29T03:26:36.350Z,28.33
2023-01-29T03:31:38.543Z,22.92
2023-01-29T03:36:42.677Z,28.67
2023-01-29T03:42:07.951Z,28.92
2023-01-29T03:47:28.628Z,30.25
2023-01-29T03:52:33.067Z,31.75
2023-01-29T03:57:41.036Z,31.42
2023-01-29T04:02:49.057Z,25.88
2023-01-29T04:07:54.727Z,23.42
2023-01-29T04:13:01.879Z,23.55
2023-01-29T04:18:05.543Z,26.92
2023-01-29T04:23:26.912Z,29.88
2023-01-29T04:28:39.518Z,24.23
2023-01-29T04:33:46.813Z,25.58
2023-01-29T04:39:12.768Z,24.63
2023-01-29T04:44:42.825Z,26.63
2023-01-29T04:49:44.796Z,26.35
2023-01-29T04:55:08.571Z,31.38
2023-01-29T05:00:14.012Z,27.27
2023-01-29T05:05:17.715Z,28.20
2023-01-29T05:10:21.004Z,29.42
2023-01-29T05:20:24.495Z,30.63
2023-01-29T05:25:27.768Z,32.92
2023-01-29T05:35:31.667Z,28.73
2023-01-29T05:40:33.592Z,36.07
2023-01-29T05:45:35.434Z,34.53
2023-01-29T05:50:37.280Z,32.80
2023-01-29T05:55:39.390Z,32.53
2023-01-29T06:00:41.467Z,32.40
2023-01-29T06:05:43.297Z,34.53
2023-01-29T06:10:45.147Z,33.28
2023-01-29T06:15:47.086Z,31.85
2023-01-29T06:20:49.036Z,35.72
2023-01-29T06:25:51.083Z,35.67
2023-01-29T06:30:53.113Z,33.90
2023-01-29T06:35:55.841Z,31.85
2023-01-29T06:40:57.953Z,34.83
2023-01-29T06:45:59.816Z,39.55
2023-01-29T06:51:05.504Z,35.13
2023-01-29T06:56:07.713Z,34.60
2023-01-29T07:01:10.667Z,38.33
2023-01-29T07:06:13.060Z,30.80
2023-01-29T07:11:14.913Z,35.70
2023-01-29T07:16:16.966Z,33.08
2023-01-29T07:21:18.851Z,33.05
2023-01-29T07:26:21.308Z,31.02
2023-01-29T07:31:23.857Z,32.25
2023-01-29T07:36:26.357Z,31.33
2023-01-29T07:41:28.553Z,34.03
2023-01-29T07:46:34.900Z,37.67
2023-01-29T07:51:36.907Z,34.97
2023-01-29T07:56:39.210Z,34.65
2023-01-29T08:01:41.341Z,35.97
2023-01-29T08:06:43.372Z,32.10
2023-01-29T08:11:45.203Z,33.67
2023-01-29T08:16:47.437Z,33.05
2023-01-29T08:21:49.515Z,31.57
2023-01-29T08:26:51.760Z,38.28
2023-01-29T08:31:53.895Z,35.80
2023-01-29T08:36:55.902Z,35.60
2023-01-29T08:41:57.919Z,32.92
2023-01-29T08:46:59.890Z,34.03
2023-01-29T08:52:03.126Z,30.98
2023-01-29T08:57:05.780Z,30.83
2023-01-29T09:02:09.280Z,34.05
2023-01-29T09:07:11.157Z,34.42
2023-01-29T09:12:13.141Z,40.35
2023-01-29T09:17:15.121Z,31.38
2023-01-29T09:22:17.150Z,31.00
2023-01-29T09:27:19.012Z,28.40
2023-01-29T09:32:49.797Z,31.45
2023-01-29T09:37:43.379Z,31.90
2023-01-29T09:42:53.681Z,33.55
2023-01-29T09:48:02.385Z,33.03
2023-01-29T09:53:19.990Z,28.23
2023-01-29T09:58:36.215Z,31.60
2023-01-29T10:03:41.040Z,35.55
2023-01-29T10:08:57.230Z,26.55
2023-01-29T10:13:59.045Z,32.75
2023-01-29T10:19:03.985Z,31.58
2023-01-29T10:24:17.726Z,28.75
2023-01-29T10:29:20.248Z,32.92
2023-01-29T10:34:24.905Z,30.43
2023-01-29T10:39:26.951Z,32.08
2023-01-29T10:44:34.964Z,31.52
2023-01-29T10:49:55.474Z,32.13
2023-01-29T10:55:16.058Z,30.60
2023-01-29T11:00:26.493Z,29.73
2023-01-29T11:05:38.929Z,34.80
2023-01-29T11:10:52.488Z,31.60
2023-01-29T11:15:54.652Z,30.52
2023-01-29T11:21:01.099Z,33.08
2023-01-29T11:26:03.101Z,36.22
2023-01-29T11:31:15.371Z,30.85
2023-01-29T11:36:21.471Z,37.13
2023-01-29T11:41:23.312Z,38.13
2023-01-29T11:46:25.349Z,36.42
2023-01-29T11:51:28.719Z,33.97
2023-01-29T11:56:41.915Z,38.30
2023-01-29T12:01:43.978Z,37.75
2023-01-29T12:06:47.451Z,37.85
2023-01-29T12:16:54.716Z,35.97
2023-01-29T12:22:21.407Z,34.40
2023-01-29T12:27:41.770Z,37.40
2023-01-29T12:32:43.865Z,38.17
2023-01-29T12:37:45.675Z,39.50
2023-01-29T12:42:51.301Z,40.10
2023-01-29T12:47:58.749Z,40.97
2023-01-29T12:53:02.495Z,37.60
2023-01-29T12:58:05.431Z,39.92
2023-01-29T13:03:10.235Z,41.33
2023-01-29T13:08:16.135Z,40.28
2023-01-29T13:13:33.377Z,37.47
2023-01-29T13:18:41.386Z,42.10
2023-01-29T13:23:49.159Z,45.95
2023-01-29T13:28:51.708Z,38.42
2023-01-29T13:34:02.694Z,42.73
2023-01-29T13:39:08.916Z,43.85
2023-01-29T13:44:49.141Z,47.00
2023-01-29T13:49:56.015Z,41.97
2023-01-29T13:55:00.728Z,42.90
2023-01-29T14:00:02.908Z,45.22
2023-01-29T14:05:25.350Z,44.47
2023-01-29T14:10:28.736Z,41.13
2023-01-29T14:15:32.278Z,48.50
2023-01-29T14:20:52.501Z,45.17
2023-01-29T14:25:54.617Z,43.05
2023-01-29T14:30:56.559Z,42.40
2023-01-29T14:35:58.768Z,47.72
2023-01-29T14:41:25.163Z,48.05
2023-01-29T14:46:33.171Z,48.10
2023-01-29T14:51:37.432Z,50.25
2023-01-29T14:56:53.762Z,50.83
2023-01-29T15:02:00.263Z,53.33
2023-01-29T15:07:15.445Z,52.92
2023-01-29T15:12:48.326Z,59.20
2023-01-29T15:18:08.577Z,64.07
2023-01-29T15:23:31.011Z,61.60
2023-01-29T15:28:35.223Z,66.70
2023-01-29T15:33:38.223Z,64.65
2023-01-29T15:38:40.200Z,62.58
2023-01-29T15:43:48.514Z,63.22
2023-01-29T15:48:51.879Z,61.03
2023-01-29T15:53:56.614Z,66.88
2023-01-29T15:59:02.852Z,59.67
2023-01-29T16:04:13.234Z,63.33
2023-01-29T16:09:19.315Z,65.60
2023-01-29T16:14:22.862Z,67.30
2023-01-29T16:19:27.757Z,67.18
2023-01-29T16:24:32.297Z,65.38
2023-01-29T16:29:35.687Z,67.97
2023-01-29T16:34:40.563Z,60.22
2023-01-29T16:39:46.932Z,61.83
2023-01-29T16:45:06.152Z,68.00
2023-01-29T16:50:43.431Z,66.68
2023-01-29T16:56:02.555Z,66.15
2023-01-29T17:01:09.230Z,62.92
2023-01-29T17:06:24.626Z,67.50
2023-01-29T17:11:40.452Z,62.97
2023-01-29T17:16:55.497Z,62.97
2023-01-29T17:21:58.828Z,66.00
2023-01-29T17:27:02.072Z,55.15
2023-01-29T17:37:06.429Z,54.75
2023-01-29T17:42:13.069Z,62.20
2023-01-29T17:47:15.239Z,64.22
2023-01-29T17:52:17.409Z,62.25
2023-01-29T17:57:19.564Z,56.70
2023-01-29T18:02:29.489Z,60.58
2023-01-29T18:07:31.813Z,55.13
2023-01-29T18:12:33.808Z,53.88
2023-01-29T18:17:35.998Z,56.67
2023-01-29T18:22:38.150Z,56.85
2023-01-29T18:27:40.362Z,56.35
2023-01-29T18:32:42.543Z,54.55
2023-01-29T18:37:44.731Z,54.65
2023-01-29T18:42:48.126Z,53.17
2023-01-29T18:47:50.298Z,56.92
2023-01-29T18:52:53.708Z,59.83
2023-01-29T18:58:27.048Z,58.15
2023-01-29T19:03:19.156Z,60.25
2023-01-29T19:08:21.383Z,61.00
2023-01-29T19:13:23.591Z,55.63
2023-01-29T19:18:26.006Z,53.60
2023-01-29T19:23:27.835Z,67.13
2023-01-29T19:28:29.696Z,61.75
2023-01-29T19:33:31.767Z,53.55
2023-01-29T19:38:34.049Z,61.70
2023-01-29T19:43:36.179Z,60.37
2023-01-29T19:48:38.434Z,56.13
2023-01-29T19:53:42.168Z,57.65
2023-01-29T19:58:44.888Z,57.95
2023-01-29T20:03:48.799Z,54.72
2023-01-29T20:08:51.303Z,59.33
2023-01-29T20:13:53.816Z,59.70
2023-01-29T20:18:55.978Z,60.97
2023-01-29T20:24:16.717Z,54.90
2023-01-29T20:29:18.742Z,62.60
2023-01-29T20:34:20.934Z,59.63
2023-01-29T20:39:22.923Z,54.85
2023-01-29T20:44:25.335Z,53.17
2023-01-29T20:49:27.365Z,56.17
2023-01-29T20:54:29.195Z,54.17
2023-01-29T20:59:31.118Z,51.80
2023-01-29T21:04:32.967Z,59.08
2023-01-29T21:09:35.195Z,51.53
2023-01-29T21:14:37.571Z,56.40
2023-01-29T21:19:39.581Z,56.28
2023-01-29T21:24:41.868Z,50.08
2023-01-29T21:29:44.292Z,53.13
2023-01-29T21:34:46.252Z,50.25
2023-01-29T21:39:48.501Z,50.20
2023-01-29T21:44:50.543Z,56.70
2023-01-29T21:49:52.537Z,49.20
2023-01-29T21:54:54.667Z,52.08
2023-01-29T21:59:56.492Z,54.00
2023-01-29T22:05:08.802Z,54.95
2023-01-29T22:10:20.348Z,54.67
2023-01-29T22:15:23.970Z,49.28
2023-01-29T22:20:26.154Z,51.47
2023-01-29T22:25:28.306Z,49.47
2023-01-29T22:30:30.485Z,53.55
2023-01-29T22:35:32.423Z,49.28
2023-01-29T22:40:34.428Z,46.25
2023-01-29T22:45:39.787Z,53.75
2023-01-29T22:50:41.950Z,47.50
2023-01-29T22:55:43.818Z,45.08
2023-01-29T23:00:49.620Z,46.25
2023-01-29T23:05:51.461Z,46.22
2023-01-29T23:10:53.664Z,43.72
2023-01-29T23:15:59.000Z,44.47
2023-01-29T23:21:01.237Z,48.88
2023-01-29T23:26:04.314Z,49.30
2023-01-29T23:31:06.415Z,46.90
2023-01-29T23:36:08.954Z,52.43
2023-01-29T23:41:11.282Z,45.77
2023-01-29T23:46:13.524Z,43.17
2023-01-29T23:51:15.383Z,46.38
2023-01-29T23:56:17.213Z,45.88
